createdAt,value
2019-01-15T00:00:14.291Z,1005.87
2019-01-15T00:01:14.303Z,1005.95
2019-01-15T00:02:14.279Z,1006.03
2019-01-15T00:03:14.317Z,1006.05
2019-01-15T00:04:14.249Z,1005.96
2019-01-15T00:05:14.230Z,1006.11
2019-01-15T00:06:14.228Z,1006.08
2019-01-15T00:07:14.247Z,1005.98
2019-01-15T00:08:14.198Z,1006.05
2019-01-15T00:09:14.189Z,1006.09
2019-01-15T00:10:14.179Z,1006.01
2019-01-15T00:11:14.172Z,1006.03
2019-01-15T00:12:14.161Z,1006.14
2019-01-15T00:13:14.161Z,1006.17
2019-01-15T00:14:14.137Z,1006.14
2019-01-15T00:15:14.124Z,1006.12
2019-01-15T00:16:14.113Z,1006.15
2019-01-15T00:17:14.107Z,1006.11
2019-01-15T00:18:14.117Z,1006.05
2019-01-15T00:19:14.083Z,1006.40
2019-01-15T00:20:14.073Z,1006.04
2019-01-15T00:21:14.063Z,1006.11
2019-01-15T00:22:14.055Z,1006.10
2019-01-15T00:23:14.053Z,1006.14
2019-01-15T00:24:14.028Z,1006.13
2019-01-15T00:25:14.019Z,1006.20
2019-01-15T00:26:14.010Z,1005.96
2019-01-15T00:27:13.998Z,1006.10
2019-01-15T00:28:14.007Z,1006.22
2019-01-15T00:29:13.983Z,1006.15
2019-01-15T00:30:13.966Z,1006.07
2019-01-15T00:31:13.956Z,1006.12
2019-01-15T00:32:13.957Z,1006.13
2019-01-15T00:33:13.938Z,1006.06
2019-01-15T00:34:13.928Z,1006.22
2019-01-15T00:35:13.923Z,1006.17
2019-01-15T00:36:13.901Z,1006.20
2019-01-15T00:37:13.909Z,1006.21
2019-01-15T00:38:13.879Z,1006.16
2019-01-15T00:39:13.885Z,1006.04
2019-01-15T00:40:13.863Z,1006.11
2019-01-15T00:41:13.850Z,1006.15
2019-01-15T00:42:15.371Z,1006.19
2019-01-15T00:43:13.830Z,1006.20
2019-01-15T00:44:13.845Z,1006.16
2019-01-15T00:45:13.809Z,1006.01
2019-01-15T00:46:13.793Z,1006.23
2019-01-15T00:47:13.799Z,1006.20
2019-01-15T00:48:13.771Z,1006.26
2019-01-15T00:49:29.617Z,1006.10
2019-01-15T00:50:13.800Z,1006.28
2019-01-15T00:51:13.737Z,1006.14
2019-01-15T00:52:13.736Z,1006.22
2019-01-15T00:53:13.725Z,1006.24
2019-01-15T00:54:13.716Z,1006.17
2019-01-15T00:55:13.714Z,1006.18
2019-01-15T00:56:13.687Z,1006.13
2019-01-15T00:57:13.682Z,1006.26
2019-01-15T00:58:13.675Z,1006.23
2019-01-15T00:59:13.655Z,1006.25
2019-01-15T01:00:13.664Z,1006.23
2019-01-15T01:01:13.637Z,1006.22
2019-01-15T01:02:13.624Z,1006.23
2019-01-15T01:03:13.657Z,1006.26
2019-01-15T01:04:14.214Z,1006.28
2019-01-15T01:05:13.671Z,1006.31
2019-01-15T01:06:13.579Z,1006.26
2019-01-15T01:07:13.567Z,1006.27
2019-01-15T01:08:13.563Z,1006.27
2019-01-15T01:09:13.551Z,1006.25
2019-01-15T01:10:13.565Z,1006.33
2019-01-15T01:11:13.525Z,1006.19
2019-01-15T01:12:13.515Z,1006.29
2019-01-15T01:13:13.532Z,1006.31
2019-01-15T01:14:13.496Z,1006.32
2019-01-15T01:15:13.495Z,1006.35
2019-01-15T01:16:13.497Z,1006.34
2019-01-15T01:17:13.467Z,1006.39
2019-01-15T01:18:13.454Z,1006.37
2019-01-15T01:19:13.458Z,1006.43
2019-01-15T01:20:13.433Z,1006.52
2019-01-15T01:21:13.440Z,1006.41
2019-01-15T01:22:13.411Z,1006.53
2019-01-15T01:23:13.397Z,1006.37
2019-01-15T01:24:13.399Z,1006.45
2019-01-15T01:25:13.377Z,1006.39
2019-01-15T01:26:13.382Z,1006.46
2019-01-15T01:27:13.356Z,1006.45
2019-01-15T01:28:13.347Z,1006.36
2019-01-15T01:29:13.334Z,1006.50
2019-01-15T01:30:13.323Z,1006.36
2019-01-15T01:31:13.349Z,1006.43
2019-01-15T01:32:13.311Z,1006.48
2019-01-15T01:33:13.294Z,1006.46
2019-01-15T01:34:13.279Z,1006.43
2019-01-15T01:35:13.270Z,1006.37
2019-01-15T01:36:13.273Z,1006.42
2019-01-15T01:37:13.272Z,1006.63
2019-01-15T01:38:13.242Z,1006.43
2019-01-15T01:39:13.232Z,1006.45
2019-01-15T01:40:13.220Z,1006.47
2019-01-15T01:41:13.205Z,1006.53
2019-01-15T01:42:13.219Z,1006.47
2019-01-15T01:43:13.192Z,1006.52
2019-01-15T01:44:13.184Z,1006.64
2019-01-15T01:45:13.169Z,1006.59
2019-01-15T01:46:13.155Z,1006.66
2019-01-15T01:47:13.167Z,1006.63
2019-01-15T01:48:13.135Z,1006.56
2019-01-15T01:49:15.659Z,1006.65
2019-01-15T01:50:13.111Z,1006.65
2019-01-15T01:51:13.107Z,1006.65
2019-01-15T01:52:13.138Z,1006.69
2019-01-15T01:53:13.081Z,1006.68
2019-01-15T01:54:13.085Z,1006.73
2019-01-15T01:55:13.059Z,1006.54
2019-01-15T01:56:13.062Z,1006.74
2019-01-15T01:57:13.669Z,1006.76
2019-01-15T01:58:13.049Z,1006.83
2019-01-15T01:59:13.019Z,1006.76
2019-01-15T02:00:13.009Z,1006.77
2019-01-15T02:01:13.023Z,1006.80
2019-01-15T02:02:16.638Z,1006.85
2019-01-15T02:03:13.009Z,1006.86
2019-01-15T02:04:12.963Z,1006.87
2019-01-15T02:05:12.950Z,1006.88
2019-01-15T02:06:12.942Z,1006.86
2019-01-15T02:07:12.945Z,1006.86
2019-01-15T02:08:12.915Z,1006.84
2019-01-15T02:09:13.269Z,1006.88
2019-01-15T02:10:12.901Z,1006.95
2019-01-15T02:11:28.310Z,1006.87
2019-01-15T02:12:14.561Z,1006.93
2019-01-15T02:13:12.966Z,1006.94
2019-01-15T02:14:12.870Z,1006.95
2019-01-15T02:15:12.845Z,1006.91
2019-01-15T02:16:12.834Z,1006.99
2019-01-15T02:17:12.827Z,1006.86
2019-01-15T02:18:12.821Z,1006.77
2019-01-15T02:19:12.831Z,1006.85
2019-01-15T02:20:12.790Z,1006.83
2019-01-15T02:21:12.785Z,1006.79
2019-01-15T02:22:12.773Z,1006.86
2019-01-15T02:23:12.759Z,1006.88
2019-01-15T02:24:12.810Z,1006.86
2019-01-15T02:25:37.670Z,1006.91
2019-01-15T02:26:19.702Z,1006.88
2019-01-15T02:27:12.725Z,1006.90
2019-01-15T02:28:12.704Z,1006.93
2019-01-15T02:29:12.698Z,1006.81
2019-01-15T02:30:12.709Z,1006.90
2019-01-15T02:31:12.672Z,1006.85
2019-01-15T02:32:12.664Z,1006.85
2019-01-15T02:33:12.652Z,1006.91
2019-01-15T02:34:12.642Z,1006.94
2019-01-15T02:35:12.650Z,1006.89
2019-01-15T02:36:12.617Z,1006.77
2019-01-15T02:37:12.606Z,1006.68
2019-01-15T02:38:14.633Z,1006.83
2019-01-15T02:39:12.697Z,1006.84
2019-01-15T02:40:12.599Z,1006.88
2019-01-15T02:41:12.575Z,1006.90
2019-01-15T02:43:13.614Z,1006.98
2019-01-15T02:44:12.555Z,1006.89
2019-01-15T02:45:12.537Z,1006.88
2019-01-15T02:46:12.526Z,1006.91
2019-01-15T02:47:12.514Z,1006.90
2019-01-15T02:48:12.560Z,1006.98
2019-01-15T02:49:12.487Z,1006.92
2019-01-15T02:50:12.484Z,1006.88
2019-01-15T02:51:14.654Z,1007.07
2019-01-15T02:52:12.452Z,1007.04
2019-01-15T02:53:12.442Z,1006.93
2019-01-15T02:54:37.138Z,1007.05
2019-01-15T02:55:12.537Z,1006.95
2019-01-15T02:56:19.251Z,1007.06
2019-01-15T02:57:12.406Z,1006.96
2019-01-15T02:58:12.391Z,1006.88
2019-01-15T02:59:12.389Z,1007.00
2019-01-15T03:00:12.380Z,1006.91
2019-01-15T03:01:12.351Z,1006.93
2019-01-15T03:02:12.340Z,1006.88
2019-01-15T03:03:12.339Z,1006.87
2019-01-15T03:04:12.332Z,1006.89
2019-01-15T03:05:12.355Z,1006.78
2019-01-15T03:06:27.178Z,1006.93
2019-01-15T03:07:12.291Z,1006.93
2019-01-15T03:08:12.280Z,1006.93
2019-01-15T03:09:12.268Z,1007.04
2019-01-15T03:10:12.281Z,1007.09
2019-01-15T03:11:12.249Z,1006.95
2019-01-15T03:12:12.246Z,1006.97
2019-01-15T03:13:12.229Z,1007.02
2019-01-15T03:14:12.218Z,1006.99
2019-01-15T03:15:12.230Z,1007.02
2019-01-15T03:16:12.204Z,1007.12
2019-01-15T03:17:12.188Z,1007.08
2019-01-15T03:18:12.176Z,1007.14
2019-01-15T03:19:12.163Z,1007.16
2019-01-15T03:20:34.634Z,1007.11
2019-01-15T03:21:31.732Z,1007.12
2019-01-15T03:23:21.746Z,1007.12
2019-01-15T03:24:21.728Z,1007.15
2019-01-15T03:25:21.721Z,1007.15
2019-01-15T03:26:21.726Z,1007.14
2019-01-15T03:27:21.702Z,1007.19
2019-01-15T03:28:21.721Z,1007.10
2019-01-15T03:29:21.682Z,1007.18
2019-01-15T03:30:21.675Z,1007.14
2019-01-15T03:31:21.673Z,1007.18
2019-01-15T03:32:21.649Z,1007.17
2019-01-15T03:33:21.652Z,1007.19
2019-01-15T03:34:21.622Z,1007.15
2019-01-15T03:35:21.681Z,1007.20
2019-01-15T03:36:21.626Z,1007.13
2019-01-15T03:37:21.615Z,1007.16
2019-01-15T03:38:21.582Z,1007.12
2019-01-15T03:39:21.975Z,1007.13
2019-01-15T03:40:48.676Z,1007.18
2019-01-15T03:41:21.564Z,1007.18
2019-01-15T03:42:21.541Z,1007.21
2019-01-15T03:43:21.533Z,1007.31
2019-01-15T03:44:21.523Z,1007.28
2019-01-15T03:45:21.518Z,1007.20
2019-01-15T03:46:21.531Z,1007.30
2019-01-15T03:47:21.493Z,1007.27
2019-01-15T03:48:21.498Z,1007.20
2019-01-15T03:49:21.468Z,1007.18
2019-01-15T03:50:21.464Z,1007.16
2019-01-15T03:51:21.472Z,1007.16
2019-01-15T03:52:21.438Z,1007.16
2019-01-15T03:53:43.090Z,1007.17
2019-01-15T03:55:30.008Z,1007.18
2019-01-15T03:56:30.014Z,1007.10
2019-01-15T03:57:29.990Z,1007.27
2019-01-15T03:58:30.045Z,1007.07
2019-01-15T03:59:29.966Z,1007.13
2019-01-15T04:00:29.954Z,1007.12
2019-01-15T04:01:29.963Z,1007.05
2019-01-15T04:03:30.993Z,1007.05
2019-01-15T04:04:29.927Z,1007.09
2019-01-15T04:05:29.911Z,1007.15
2019-01-15T04:07:30.886Z,1007.14
2019-01-15T04:08:29.886Z,1007.16
2019-01-15T04:09:29.890Z,1007.17
2019-01-15T04:10:29.855Z,1007.17
2019-01-15T04:11:29.861Z,1007.14
2019-01-15T04:12:29.838Z,1007.22
2019-01-15T04:13:29.820Z,1007.19
2019-01-15T04:14:29.822Z,1007.23
2019-01-15T04:15:29.797Z,1007.21
2019-01-15T04:16:29.851Z,1007.17
2019-01-15T04:17:29.776Z,1007.34
2019-01-15T04:18:29.768Z,1007.24
2019-01-15T04:19:29.765Z,1007.17
2019-01-15T04:20:30.386Z,1007.35
2019-01-15T04:21:29.768Z,1007.30
2019-01-15T04:22:29.726Z,1007.35
2019-01-15T04:23:29.714Z,1007.43
2019-01-15T04:24:29.707Z,1007.45
2019-01-15T04:25:29.697Z,1007.43
2019-01-15T04:26:29.688Z,1007.42
2019-01-15T04:27:29.691Z,1007.36
2019-01-15T04:28:29.661Z,1007.20
2019-01-15T04:29:29.654Z,1007.49
2019-01-15T04:30:29.640Z,1007.38
2019-01-15T04:31:29.648Z,1007.38
2019-01-15T04:32:40.961Z,1007.39
2019-01-15T04:33:29.610Z,1007.34
2019-01-15T04:34:29.600Z,1007.29
2019-01-15T04:35:29.600Z,1007.33
2019-01-15T04:36:29.581Z,1007.37
2019-01-15T04:37:29.589Z,1007.42
2019-01-15T04:38:29.558Z,1007.46
2019-01-15T04:39:29.546Z,1007.42
2019-01-15T04:40:29.542Z,1007.42
2019-01-15T04:41:29.536Z,1007.39
2019-01-15T04:42:30.123Z,1007.44
2019-01-15T04:43:29.510Z,1007.38
2019-01-15T04:44:29.506Z,1007.36
2019-01-15T04:45:33.060Z,1007.36
2019-01-15T04:47:30.554Z,1007.35
2019-01-15T04:48:50.454Z,1007.38
2019-01-15T04:49:50.448Z,1007.40
2019-01-15T04:50:50.434Z,1007.45
2019-01-15T04:51:50.423Z,1007.37
2019-01-15T04:54:46.559Z,1007.23
2019-01-15T04:55:46.540Z,1007.31
2019-01-15T04:56:46.540Z,1007.37
2019-01-15T04:57:46.540Z,1007.34
2019-01-15T04:58:46.519Z,1007.33
2019-01-15T04:59:46.501Z,1007.35
2019-01-15T05:00:46.491Z,1007.34
2019-01-15T05:01:46.482Z,1007.31
2019-01-15T05:02:46.495Z,1007.18
2019-01-15T05:03:46.464Z,1007.19
2019-01-15T05:04:46.454Z,1007.16
2019-01-15T05:05:46.462Z,1007.22
2019-01-15T05:06:46.428Z,1007.17
2019-01-15T05:08:01.024Z,1007.20
2019-01-15T05:08:46.414Z,1007.12
2019-01-15T05:09:46.397Z,1007.06
2019-01-15T05:10:46.391Z,1007.04
2019-01-15T05:11:46.375Z,1007.07
2019-01-15T05:12:46.388Z,1006.99
2019-01-15T05:13:46.358Z,1006.98
2019-01-15T05:14:46.345Z,1007.07
2019-01-15T05:15:46.382Z,1006.96
2019-01-15T05:16:46.328Z,1007.06
2019-01-15T05:17:46.340Z,1006.98
2019-01-15T05:18:46.302Z,1006.99
2019-01-15T05:19:46.295Z,1007.08
2019-01-15T05:20:46.283Z,1007.13
2019-01-15T05:21:46.280Z,1007.10
2019-01-15T05:22:46.296Z,1007.03
2019-01-15T05:23:46.255Z,1007.00
2019-01-15T05:24:46.245Z,1006.97
2019-01-15T05:25:46.237Z,1006.91
2019-01-15T05:26:46.229Z,1006.92
2019-01-15T05:27:50.475Z,1006.98
2019-01-15T05:28:46.245Z,1006.93
2019-01-15T05:29:46.245Z,1007.10
2019-01-15T05:30:47.032Z,1007.09
2019-01-15T05:31:46.185Z,1006.94
2019-01-15T05:33:15.120Z,1006.90
2019-01-15T05:33:46.161Z,1007.01
2019-01-15T05:34:54.249Z,1007.01
2019-01-15T05:35:47.205Z,1006.97
2019-01-15T05:36:46.124Z,1006.91
2019-01-15T05:37:46.112Z,1007.05
2019-01-15T05:38:46.121Z,1006.89
2019-01-15T05:39:46.095Z,1006.93
2019-01-15T05:40:46.082Z,1007.03
2019-01-15T05:41:46.061Z,1006.99
2019-01-15T05:42:46.052Z,1007.00
2019-01-15T05:43:46.065Z,1007.05
2019-01-15T05:44:46.036Z,1007.08
2019-01-15T05:45:46.026Z,1007.08
2019-01-15T05:46:46.016Z,1007.20
2019-01-15T05:47:46.001Z,1006.98
2019-01-15T05:48:46.011Z,1006.98
2019-01-15T05:49:45.983Z,1006.99
2019-01-15T05:50:45.975Z,1006.92
2019-01-15T05:51:46.527Z,1006.85
2019-01-15T05:52:46.201Z,1006.92
2019-01-15T05:53:45.983Z,1006.93
2019-01-15T05:54:45.941Z,1007.02
2019-01-15T05:55:45.918Z,1006.96
2019-01-15T05:56:45.914Z,1006.85
2019-01-15T05:57:45.913Z,1006.91
2019-01-15T05:58:45.936Z,1006.90
2019-01-15T05:59:45.874Z,1006.91
2019-01-15T06:00:45.865Z,1006.90
2019-01-15T06:01:45.855Z,1006.94
2019-01-15T06:02:45.847Z,1006.78
2019-01-15T06:03:45.836Z,1007.01
2019-01-15T06:04:45.848Z,1006.99
2019-01-15T06:05:45.826Z,1007.01
2019-01-15T06:06:45.824Z,1007.01
2019-01-15T06:07:45.804Z,1006.97
2019-01-15T06:08:45.794Z,1006.99
2019-01-15T06:09:45.795Z,1006.97
2019-01-15T06:10:45.759Z,1006.93
2019-01-15T06:11:45.757Z,1006.91
2019-01-15T06:12:45.777Z,1006.94
2019-01-15T06:13:45.731Z,1006.95
2019-01-15T06:14:45.733Z,1006.99
2019-01-15T06:15:45.709Z,1007.07
2019-01-15T06:16:45.698Z,1006.90
2019-01-15T06:17:45.691Z,1006.88
2019-01-15T06:18:45.702Z,1006.91
2019-01-15T06:19:45.681Z,1006.94
2019-01-15T06:20:45.677Z,1006.91
2019-01-15T06:21:46.489Z,1006.80
2019-01-15T06:22:45.636Z,1006.83
2019-01-15T06:23:45.627Z,1006.72
2019-01-15T06:24:45.743Z,1006.79
2019-01-15T06:25:46.526Z,1006.86
2019-01-15T06:26:45.591Z,1006.68
2019-01-15T06:27:45.589Z,1006.71
2019-01-15T06:28:45.571Z,1006.72
2019-01-15T06:29:45.595Z,1006.64
2019-01-15T06:30:45.573Z,1006.74
2019-01-15T06:31:45.551Z,1006.67
2019-01-15T06:32:45.530Z,1006.65
2019-01-15T06:33:45.516Z,1006.79
2019-01-15T06:34:45.534Z,1006.75
2019-01-15T06:35:45.497Z,1006.78
2019-01-15T06:36:45.498Z,1006.82
2019-01-15T06:37:45.528Z,1006.64
2019-01-15T06:38:45.463Z,1006.81
2019-01-15T06:39:45.474Z,1006.85
2019-01-15T06:40:45.443Z,1006.73
2019-01-15T06:41:45.444Z,1006.85
2019-01-15T06:42:45.446Z,1006.85
2019-01-15T06:43:49.989Z,1006.85
2019-01-15T06:44:45.423Z,1006.87
2019-01-15T06:45:45.405Z,1006.91
2019-01-15T06:46:45.382Z,1006.79
2019-01-15T06:47:45.376Z,1006.77
2019-01-15T06:48:45.363Z,1006.86
2019-01-15T06:49:45.393Z,1006.85
2019-01-15T06:50:45.339Z,1006.85
2019-01-15T06:51:45.331Z,1006.72
2019-01-15T06:52:45.319Z,1006.71
2019-01-15T06:53:45.311Z,1006.74
2019-01-15T06:54:45.334Z,1006.75
2019-01-15T06:55:45.299Z,1006.71
2019-01-15T06:56:45.277Z,1006.78
2019-01-15T06:57:45.266Z,1006.72
2019-01-15T06:58:45.255Z,1006.73
2019-01-15T06:59:45.337Z,1006.80
2019-01-15T07:00:45.253Z,1006.74
2019-01-15T07:01:45.223Z,1006.71
2019-01-15T07:02:45.311Z,1006.83
2019-01-15T07:03:46.491Z,1006.82
2019-01-15T07:04:45.258Z,1006.80
2019-01-15T07:05:45.327Z,1006.78
2019-01-15T07:09:46.999Z,1006.93
2019-01-15T07:10:45.309Z,1006.93
2019-01-15T07:11:45.215Z,1006.87
2019-01-15T07:13:48.092Z,1006.91
2019-01-15T07:14:45.165Z,1006.86
2019-01-15T07:15:45.285Z,1006.82
2019-01-15T07:16:47.165Z,1006.88
2019-01-15T07:17:45.129Z,1006.82
2019-01-15T07:20:47.671Z,1006.70
2019-01-15T07:21:45.118Z,1006.85
2019-01-15T07:22:45.099Z,1006.74
2019-01-15T07:24:53.622Z,1006.85
2019-01-15T07:28:04.286Z,1006.72
2019-01-15T07:29:03.271Z,1006.75
2019-01-15T07:30:03.267Z,1006.94
2019-01-15T07:31:03.287Z,1006.77
2019-01-15T07:32:05.246Z,1006.81
2019-01-15T07:34:04.227Z,1006.73
2019-01-15T07:35:03.243Z,1006.84
2019-01-15T07:36:06.228Z,1006.80
2019-01-15T07:38:04.183Z,1006.89
2019-01-15T07:39:03.167Z,1006.76
2019-01-15T07:40:03.177Z,1006.68
2019-01-15T07:41:05.606Z,1006.78
2019-01-15T07:42:03.203Z,1006.86
2019-01-15T07:45:25.109Z,1006.69
2019-01-15T07:46:03.332Z,1006.69
2019-01-15T07:47:07.111Z,1006.64
2019-01-15T07:48:07.140Z,1006.66
2019-01-15T07:49:05.076Z,1006.58
2019-01-15T07:52:17.355Z,1006.60
2019-01-15T07:52:56.331Z,1006.55
2019-01-15T07:53:56.321Z,1006.54
2019-01-15T07:54:56.307Z,1006.61
2019-01-15T07:55:56.299Z,1006.68
2019-01-15T07:56:56.305Z,1006.66
2019-01-15T07:57:57.777Z,1006.53
2019-01-15T07:58:56.283Z,1006.62
2019-01-15T07:59:56.266Z,1006.63
2019-01-15T08:00:56.246Z,1006.59
2019-01-15T08:01:56.254Z,1006.68
2019-01-15T08:02:56.233Z,1006.52
2019-01-15T08:03:56.222Z,1006.67
2019-01-15T08:05:57.253Z,1006.73
2019-01-15T08:06:56.271Z,1006.70
2019-01-15T08:07:56.171Z,1006.82
2019-01-15T08:08:56.157Z,1006.76
2019-01-15T08:09:56.156Z,1006.88
2019-01-15T08:10:57.059Z,1006.83
2019-01-15T08:11:56.127Z,1006.72
2019-01-15T08:12:56.133Z,1006.73
2019-01-15T08:13:56.107Z,1006.77
2019-01-15T08:14:56.105Z,1006.74
2019-01-15T08:15:56.494Z,1006.75
2019-01-15T08:16:56.071Z,1006.65
2019-01-15T08:19:05.797Z,1006.75
2019-01-15T08:20:05.775Z,1006.80
2019-01-15T08:21:05.771Z,1006.73
2019-01-15T08:22:05.777Z,1006.75
2019-01-15T08:23:05.764Z,1006.81
2019-01-15T08:24:05.731Z,1006.82
2019-01-15T08:25:05.725Z,1006.84
2019-01-15T08:26:05.717Z,1006.76
2019-01-15T08:27:05.702Z,1006.79
2019-01-15T08:28:05.717Z,1006.84
2019-01-15T08:29:05.684Z,1006.82
2019-01-15T08:30:05.671Z,1006.85
2019-01-15T08:31:05.659Z,1006.92
2019-01-15T08:32:05.661Z,1006.96
2019-01-15T08:33:05.640Z,1006.95
2019-01-15T08:34:05.643Z,1006.89
2019-01-15T08:35:05.619Z,1006.93
2019-01-15T08:36:05.603Z,1006.86
2019-01-15T08:37:05.608Z,1007.00
2019-01-15T08:38:05.592Z,1006.83
2019-01-15T08:39:05.616Z,1006.82
2019-01-15T08:40:05.563Z,1006.67
2019-01-15T08:41:05.556Z,1006.72
2019-01-15T08:42:05.544Z,1006.68
2019-01-15T08:43:05.552Z,1006.83
2019-01-15T08:44:05.544Z,1006.72
2019-01-15T08:45:05.507Z,1006.63
2019-01-15T08:46:05.510Z,1006.61
2019-01-15T08:47:05.491Z,1006.59
2019-01-15T08:48:05.510Z,1006.66
2019-01-15T08:49:05.490Z,1006.58
2019-01-15T08:50:05.470Z,1006.64
2019-01-15T08:51:05.447Z,1006.63
2019-01-15T08:52:05.434Z,1006.62
2019-01-15T08:53:05.424Z,1006.66
2019-01-15T08:54:05.438Z,1006.79
2019-01-15T08:55:05.405Z,1006.59
2019-01-15T08:56:05.392Z,1006.90
2019-01-15T08:57:05.382Z,1006.78
2019-01-15T08:58:05.373Z,1006.76
2019-01-15T08:59:05.380Z,1006.85
2019-01-15T09:00:05.350Z,1006.74
2019-01-15T09:01:05.342Z,1006.86
2019-01-15T09:02:05.333Z,1006.83
2019-01-15T09:03:05.315Z,1006.69
2019-01-15T09:04:05.326Z,1006.78
2019-01-15T09:05:05.305Z,1006.82
2019-01-15T09:06:05.288Z,1006.77
2019-01-15T09:07:05.279Z,1006.65
2019-01-15T09:08:05.265Z,1006.63
2019-01-15T09:09:05.270Z,1006.75
2019-01-15T09:10:05.249Z,1006.65
2019-01-15T09:11:05.246Z,1006.66
2019-01-15T09:12:05.224Z,1006.70
2019-01-15T09:13:05.221Z,1006.72
2019-01-15T09:14:05.216Z,1006.76
2019-01-15T09:15:05.192Z,1006.77
2019-01-15T09:16:05.185Z,1006.81
2019-01-15T09:17:10.941Z,1006.73
2019-01-15T09:18:06.157Z,1006.90
2019-01-15T09:19:05.182Z,1006.79
2019-01-15T09:20:05.138Z,1006.77
2019-01-15T09:21:05.128Z,1006.84
2019-01-15T09:22:05.120Z,1006.90
2019-01-15T09:23:05.120Z,1006.89
2019-01-15T09:24:05.125Z,1006.98
2019-01-15T09:25:05.086Z,1006.88
2019-01-15T09:26:05.080Z,1006.86
2019-01-15T09:27:05.063Z,1006.83
2019-01-15T09:28:05.058Z,1006.79
2019-01-15T09:29:05.078Z,1007.06
2019-01-15T09:30:05.059Z,1006.94
2019-01-15T09:31:05.028Z,1007.04
2019-01-15T09:32:05.021Z,1007.01
2019-01-15T09:33:05.001Z,1007.13
2019-01-15T09:34:05.013Z,1007.01
2019-01-15T09:35:04.982Z,1006.96
2019-01-15T09:36:04.976Z,1007.00
2019-01-15T09:37:04.958Z,1006.90
2019-01-15T09:38:04.953Z,1006.85
2019-01-15T09:39:04.968Z,1006.86
2019-01-15T09:40:04.934Z,1006.94
2019-01-15T09:41:04.923Z,1007.04
2019-01-15T09:42:04.923Z,1006.88
2019-01-15T09:43:04.896Z,1006.89
2019-01-15T09:44:04.908Z,1006.87
2019-01-15T09:45:04.885Z,1006.88
2019-01-15T09:46:04.864Z,1006.94
2019-01-15T09:47:04.862Z,1006.91
2019-01-15T09:48:04.844Z,1006.79
2019-01-15T09:49:04.870Z,1006.90
2019-01-15T09:50:04.831Z,1006.79
2019-01-15T09:51:04.813Z,1006.78
2019-01-15T09:52:04.810Z,1006.78
2019-01-15T09:53:04.792Z,1006.74
2019-01-15T09:54:04.806Z,1006.69
2019-01-15T09:55:04.771Z,1006.73
2019-01-15T09:56:04.764Z,1006.72
2019-01-15T09:57:04.764Z,1006.82
2019-01-15T09:58:04.740Z,1006.79
2019-01-15T09:59:05.729Z,1006.81
2019-01-15T10:00:04.723Z,1006.82
2019-01-15T10:01:04.710Z,1006.84
2019-01-15T10:02:04.696Z,1006.86
2019-01-15T10:03:04.692Z,1006.74
2019-01-15T10:04:04.677Z,1006.79
2019-01-15T10:05:04.685Z,1006.81
2019-01-15T10:06:04.662Z,1006.78
2019-01-15T10:07:04.648Z,1006.75
2019-01-15T10:08:04.632Z,1006.78
2019-01-15T10:09:04.623Z,1006.72
2019-01-15T10:10:04.635Z,1006.61
2019-01-15T10:11:04.606Z,1006.69
2019-01-15T10:12:04.593Z,1006.69
2019-01-15T10:13:04.588Z,1006.71
2019-01-15T10:14:04.574Z,1006.69
2019-01-15T10:15:04.585Z,1006.76
2019-01-15T10:16:04.553Z,1006.79
2019-01-15T10:17:04.536Z,1006.77
2019-01-15T10:18:04.530Z,1006.77
2019-01-15T10:19:04.520Z,1006.72
2019-01-15T10:20:04.530Z,1006.71
2019-01-15T10:21:04.496Z,1006.74
2019-01-15T10:22:04.492Z,1006.65
2019-01-15T10:23:04.474Z,1006.68
2019-01-15T10:24:04.462Z,1006.57
2019-01-15T10:25:04.511Z,1006.57
2019-01-15T10:26:04.446Z,1006.59
2019-01-15T10:27:04.435Z,1006.57
2019-01-15T10:28:04.428Z,1006.69
2019-01-15T10:29:04.416Z,1006.62
2019-01-15T10:30:04.416Z,1006.64
2019-01-15T10:31:04.394Z,1006.65
2019-01-15T10:32:04.387Z,1006.65
2019-01-15T10:33:04.369Z,1006.60
2019-01-15T10:34:04.374Z,1006.57
2019-01-15T10:35:04.380Z,1006.70
2019-01-15T10:36:04.338Z,1006.63
2019-01-15T10:37:04.327Z,1006.63
2019-01-15T10:38:04.318Z,1006.62
2019-01-15T10:39:04.308Z,1006.56
2019-01-15T10:40:04.338Z,1006.55
2019-01-15T10:41:04.285Z,1006.52
2019-01-15T10:42:04.272Z,1006.56
2019-01-15T10:43:04.264Z,1006.42
2019-01-15T10:44:04.256Z,1006.50
2019-01-15T10:45:04.250Z,1006.60
2019-01-15T10:46:04.256Z,1006.52
2019-01-15T10:47:04.221Z,1006.48
2019-01-15T10:48:04.216Z,1006.48
2019-01-15T10:49:04.202Z,1006.49
2019-01-15T10:50:04.188Z,1006.56
2019-01-15T10:51:04.193Z,1006.40
2019-01-15T10:52:04.166Z,1006.52
2019-01-15T10:53:04.156Z,1006.47
2019-01-15T10:54:04.147Z,1006.49
2019-01-15T10:55:04.149Z,1006.44
2019-01-15T10:56:04.146Z,1006.41
2019-01-15T10:57:04.171Z,1006.45
2019-01-15T10:58:04.102Z,1006.44
2019-01-15T10:59:04.101Z,1006.40
2019-01-15T11:00:04.085Z,1006.39
2019-01-15T11:01:04.091Z,1006.44
2019-01-15T11:02:04.066Z,1006.33
2019-01-15T11:03:04.062Z,1006.34
2019-01-15T11:04:04.039Z,1006.34
2019-01-15T11:05:04.029Z,1006.33
2019-01-15T11:06:04.042Z,1006.33
2019-01-15T11:07:04.029Z,1006.34
2019-01-15T11:08:04.004Z,1006.38
2019-01-15T11:09:03.987Z,1006.36
2019-01-15T11:10:03.977Z,1006.28
2019-01-15T11:11:03.975Z,1006.33
2019-01-15T11:12:03.978Z,1006.43
2019-01-15T11:13:03.952Z,1006.56
2019-01-15T11:14:04.085Z,1006.29
2019-01-15T11:15:03.926Z,1006.39
2019-01-15T11:16:03.910Z,1006.35
2019-01-15T11:17:03.915Z,1006.35
2019-01-15T11:18:03.897Z,1006.32
2019-01-15T11:19:03.882Z,1006.41
2019-01-15T11:20:03.881Z,1006.39
2019-01-15T11:21:03.860Z,1006.38
2019-01-15T11:22:03.870Z,1006.31
2019-01-15T11:23:03.836Z,1006.36
2019-01-15T11:24:03.834Z,1006.28
2019-01-15T11:25:03.821Z,1006.38
2019-01-15T11:26:03.812Z,1006.32
2019-01-15T11:27:03.839Z,1006.33
2019-01-15T11:28:03.787Z,1006.24
2019-01-15T11:29:03.777Z,1006.30
2019-01-15T11:30:03.772Z,1006.24
2019-01-15T11:31:03.757Z,1006.26
2019-01-15T11:32:03.765Z,1006.25
2019-01-15T11:33:03.735Z,1006.26
2019-01-15T11:34:03.726Z,1006.21
2019-01-15T11:35:03.706Z,1006.19
2019-01-15T11:36:03.701Z,1006.21
2019-01-15T11:37:03.723Z,1006.24
2019-01-15T11:38:03.680Z,1006.24
2019-01-15T11:39:03.668Z,1006.20
2019-01-15T11:40:03.662Z,1006.16
2019-01-15T11:41:03.649Z,1006.17
2019-01-15T11:42:03.667Z,1006.17
2019-01-15T11:43:03.634Z,1006.15
2019-01-15T11:44:03.618Z,1006.08
2019-01-15T11:45:03.923Z,1006.22
2019-01-15T11:46:03.594Z,1006.07
2019-01-15T11:47:03.598Z,1006.06
2019-01-15T11:48:03.573Z,1005.97
2019-01-15T11:49:03.577Z,1005.99
2019-01-15T11:50:03.551Z,1006.00
2019-01-15T11:51:03.543Z,1005.96
2019-01-15T11:52:03.559Z,1005.95
2019-01-15T11:53:03.519Z,1005.96
2019-01-15T11:54:03.512Z,1005.94
2019-01-15T11:55:03.507Z,1005.92
2019-01-15T11:56:03.503Z,1005.92
2019-01-15T11:57:03.493Z,1005.90
2019-01-15T11:58:03.467Z,1005.90
2019-01-15T12:00:13.067Z,1005.84
2019-01-15T12:01:13.050Z,1005.87
2019-01-15T12:02:13.072Z,1005.82
2019-01-15T12:03:13.025Z,1005.81
2019-01-15T12:04:13.020Z,1005.94
2019-01-15T12:05:13.007Z,1005.93
2019-01-15T12:06:12.987Z,1005.88
2019-01-15T12:07:12.993Z,1005.86
2019-01-15T12:08:12.984Z,1005.92
2019-01-15T12:09:12.962Z,1005.88
2019-01-15T12:10:12.945Z,1005.94
2019-01-15T12:11:12.945Z,1005.85
2019-01-15T12:12:12.924Z,1005.93
2019-01-15T12:13:12.933Z,1005.81
2019-01-15T12:14:12.902Z,1005.95
2019-01-15T12:15:12.893Z,1005.88
2019-01-15T12:16:12.886Z,1005.86
2019-01-15T12:17:12.882Z,1005.80
2019-01-15T12:18:12.885Z,1005.84
2019-01-15T12:19:12.900Z,1005.78
2019-01-15T12:20:12.841Z,1005.75
2019-01-15T12:21:12.829Z,1005.75
2019-01-15T12:22:12.824Z,1005.72
2019-01-15T12:23:12.830Z,1005.83
2019-01-15T12:24:12.796Z,1005.74
2019-01-15T12:25:12.791Z,1005.83
2019-01-15T12:26:12.774Z,1005.69
2019-01-15T12:27:12.763Z,1005.71
2019-01-15T12:28:12.770Z,1005.69
2019-01-15T12:29:12.741Z,1005.74
2019-01-15T12:30:12.731Z,1005.67
2019-01-15T12:31:12.723Z,1005.60
2019-01-15T12:32:12.716Z,1005.61